sensor_id;sensor_type;location;lat;lon;timestamp;P1;durP1;ratioP1;P2;durP2;ratioP2
19257;SDS011;9763;48.780;9.212;2023-03-16T00:00:39;6.10;;;4.63;;
19257;SDS011;9763;48.780;9.212;2023-03-16T00:04:03;5.73;;;5.23;;
19257;SDS011;9763;48.780;9.212;2023-03-16T00:07:27;5.30;;;4.90;;
19257;SDS011;9763;48.780;9.212;2023-03-16T00:10:52;4.97;;;4.50;;
19257;SDS011;9763;48.780;9.212;2023-03-16T00:14:17;4.77;;;4.40;;
19257;SDS011;9763;48.780;9.212;2023-03-16T00:17:40;5.20;;;4.70;;
19257;SDS011;9763;48.780;9.212;2023-03-16T00:21:09;4.70;;;4.30;;
19257;SDS011;9763;48.780;9.212;2023-03-16T00:24:35;4.53;;;4.17;;
19257;SDS011;9763;48.780;9.212;2023-03-16T00:27:59;4.73;;;4.33;;
19257;SDS011;9763;48.780;9.212;2023-03-16T00:31:25;5.53;;;5.07;;
19257;SDS011;9763;48.780;9.212;2023-03-16T00:34:49;6.07;;;5.53;;
19257;SDS011;9763;48.780;9.212;2023-03-16T00:38:13;4.83;;;4.37;;
19257;SDS011;9763;48.780;9.212;2023-03-16T00:41:37;5.07;;;4.57;;
19257;SDS011;9763;48.780;9.212;2023-03-16T00:45:00;6.57;;;4.67;;
19257;SDS011;9763;48.780;9.212;2023-03-16T00:48:29;4.70;;;4.30;;
19257;SDS011;9763;48.780;9.212;2023-03-16T00:51:55;5.07;;;4.67;;
19257;SDS011;9763;48.780;9.212;2023-03-16T00:55:19;4.70;;;4.30;;
19257;SDS011;9763;48.780;9.212;2023-03-16T00:58:43;8.93;;;5.20;;
19257;SDS011;9763;48.780;9.212;2023-03-16T01:02:07;7.30;;;4.83;;
19257;SDS011;9763;48.780;9.212;2023-03-16T01:05:33;5.03;;;4.63;;
19257;SDS011;9763;48.780;9.212;2023-03-16T01:09:02;5.33;;;4.80;;
19257;SDS011;9763;48.780;9.212;2023-03-16T01:12:27;5.87;;;5.27;;
19257;SDS011;9763;48.780;9.212;2023-03-16T01:15:50;5.50;;;5.00;;
19257;SDS011;9763;48.780;9.212;2023-03-16T01:19:14;5.37;;;4.87;;
19257;SDS011;9763;48.780;9.212;2023-03-16T01:22:39;4.83;;;4.40;;
19257;SDS011;9763;48.780;9.212;2023-03-16T01:26:03;5.17;;;4.77;;
19257;SDS011;9763;48.780;9.212;2023-03-16T01:29:29;5.47;;;4.53;;
19257;SDS011;9763;48.780;9.212;2023-03-16T01:32:53;6.40;;;5.80;;
19257;SDS011;9763;48.780;9.212;2023-03-16T01:36:17;6.10;;;5.40;;
19257;SDS011;9763;48.780;9.212;2023-03-16T01:39:56;6.17;;;5.57;;
19257;SDS011;9763;48.780;9.212;2023-03-16T01:43:21;7.37;;;6.33;;
19257;SDS011;9763;48.780;9.212;2023-03-16T01:46:49;5.03;;;4.53;;
19257;SDS011;9763;48.780;9.212;2023-03-16T01:50:13;6.07;;;5.27;;
19257;SDS011;9763;48.780;9.212;2023-03-16T01:53:38;6.20;;;5.60;;
19257;SDS011;9763;48.780;9.212;2023-03-16T01:57:09;5.20;;;4.70;;
19257;SDS011;9763;48.780;9.212;2023-03-16T02:00:37;5.50;;;5.00;;
19257;SDS011;9763;48.780;9.212;2023-03-16T02:04:13;5.43;;;4.87;;
19257;SDS011;9763;48.780;9.212;2023-03-16T02:07:52;5.67;;;5.17;;
19257;SDS011;9763;48.780;9.212;2023-03-16T02:11:19;4.90;;;4.40;;
19257;SDS011;9763;48.780;9.212;2023-03-16T02:15:07;6.70;;;5.40;;
19257;SDS011;9763;48.780;9.212;2023-03-16T02:18:32;5.97;;;5.33;;
19257;SDS011;9763;48.780;9.212;2023-03-16T02:21:58;5.43;;;4.93;;
19257;SDS011;9763;48.780;9.212;2023-03-16T02:25:27;4.77;;;4.37;;
19257;SDS011;9763;48.780;9.212;2023-03-16T02:29:09;6.07;;;5.13;;
19257;SDS011;9763;48.780;9.212;2023-03-16T02:32:48;6.47;;;5.03;;
19257;SDS011;9763;48.780;9.212;2023-03-16T02:36:16;6.10;;;5.50;;
19257;SDS011;9763;48.780;9.212;2023-03-16T02:39:41;5.97;;;5.03;;
19257;SDS011;9763;48.780;9.212;2023-03-16T02:43:10;6.10;;;5.50;;
19257;SDS011;9763;48.780;9.212;2023-03-16T02:46:50;6.43;;;5.00;;
19257;SDS011;9763;48.780;9.212;2023-03-16T02:50:19;5.13;;;4.63;;
19257;SDS011;9763;48.780;9.212;2023-03-16T02:53:43;5.67;;;5.07;;
19257;SDS011;9763;48.780;9.212;2023-03-16T02:57:07;6.37;;;5.00;;
19257;SDS011;9763;48.780;9.212;2023-03-16T03:00:31;5.20;;;4.80;;
19257;SDS011;9763;48.780;9.212;2023-03-16T03:03:55;5.30;;;4.90;;
19257;SDS011;9763;48.780;9.212;2023-03-16T03:07:20;6.00;;;5.40;;
19257;SDS011;9763;48.780;9.212;2023-03-16T03:10:57;5.30;;;4.80;;
19257;SDS011;9763;48.780;9.212;2023-03-16T03:14:20;6.20;;;5.60;;
19257;SDS011;9763;48.780;9.212;2023-03-16T03:17:46;5.97;;;5.47;;
19257;SDS011;9763;48.780;9.212;2023-03-16T03:21:10;6.40;;;5.60;;
19257;SDS011;9763;48.780;9.212;2023-03-16T03:24:35;6.23;;;5.63;;
19257;SDS011;9763;48.780;9.212;2023-03-16T03:27:59;4.67;;;4.27;;
19257;SDS011;9763;48.780;9.212;2023-03-16T03:31:26;7.00;;;5.57;;
19257;SDS011;9763;48.780;9.212;2023-03-16T03:34:51;6.33;;;4.97;;
19257;SDS011;9763;48.780;9.212;2023-03-16T03:38:15;5.90;;;5.40;;
19257;SDS011;9763;48.780;9.212;2023-03-16T03:41:40;7.67;;;5.40;;
19257;SDS011;9763;48.780;9.212;2023-03-16T03:45:06;6.00;;;5.40;;
19257;SDS011;9763;48.780;9.212;2023-03-16T03:48:34;5.50;;;5.00;;
19257;SDS011;9763;48.780;9.212;2023-03-16T03:51:58;5.50;;;5.00;;
19257;SDS011;9763;48.780;9.212;2023-03-16T03:55:25;5.60;;;5.10;;
19257;SDS011;9763;48.780;9.212;2023-03-16T03:58:50;5.03;;;4.63;;
19257;SDS011;9763;48.780;9.212;2023-03-16T04:02:34;7.07;;;6.37;;
19257;SDS011;9763;48.780;9.212;2023-03-16T04:06:00;6.03;;;5.53;;
19257;SDS011;9763;48.780;9.212;2023-03-16T04:09:25;9.53;;;6.23;;
19257;SDS011;9763;48.780;9.212;2023-03-16T04:12:49;5.80;;;5.30;;
19257;SDS011;9763;48.780;9.212;2023-03-16T04:16:14;6.70;;;5.60;;
19257;SDS011;9763;48.780;9.212;2023-03-16T04:19:41;7.27;;;6.40;;
19257;SDS011;9763;48.780;9.212;2023-03-16T04:23:08;7.70;;;6.50;;
19257;SDS011;9763;48.780;9.212;2023-03-16T04:26:34;6.60;;;5.90;;
19257;SDS011;9763;48.780;9.212;2023-03-16T04:29:58;7.00;;;6.40;;
19257;SDS011;9763;48.780;9.212;2023-03-16T04:33:24;7.00;;;6.40;;
19257;SDS011;9763;48.780;9.212;2023-03-16T04:36:48;6.77;;;6.07;;
19257;SDS011;9763;48.780;9.212;2023-03-16T04:40:13;7.50;;;6.80;;
19257;SDS011;9763;48.780;9.212;2023-03-16T04:43:43;7.47;;;6.50;;
19257;SDS011;9763;48.780;9.212;2023-03-16T04:47:14;6.77;;;6.07;;
19257;SDS011;9763;48.780;9.212;2023-03-16T04:50:40;8.40;;;7.53;;
19257;SDS011;9763;48.780;9.212;2023-03-16T04:54:04;6.97;;;6.33;;
19257;SDS011;9763;48.780;9.212;2023-03-16T04:57:31;7.43;;;6.70;;
19257;SDS011;9763;48.780;9.212;2023-03-16T05:00:56;6.50;;;5.90;;
19257;SDS011;9763;48.780;9.212;2023-03-16T05:04:23;7.90;;;7.10;;
19257;SDS011;9763;48.780;9.212;2023-03-16T05:07:48;7.83;;;6.60;;
19257;SDS011;9763;48.780;9.212;2023-03-16T05:11:12;6.87;;;6.27;;
19257;SDS011;9763;48.780;9.212;2023-03-16T05:14:46;6.23;;;5.63;;
19257;SDS011;9763;48.780;9.212;2023-03-16T05:18:17;7.57;;;6.50;;
19257;SDS011;9763;48.780;9.212;2023-03-16T05:21:40;6.87;;;6.17;;
19257;SDS011;9763;48.780;9.212;2023-03-16T05:25:05;7.43;;;6.70;;
19257;SDS011;9763;48.780;9.212;2023-03-16T05:28:37;8.90;;;7.00;;
19257;SDS011;9763;48.780;9.212;2023-03-16T05:32:04;7.53;;;6.83;;
19257;SDS011;9763;48.780;9.212;2023-03-16T05:35:30;7.10;;;6.40;;
19257;SDS011;9763;48.780;9.212;2023-03-16T05:38:58;7.17;;;6.47;;
19257;SDS011;9763;48.780;9.212;2023-03-16T05:42:28;7.63;;;6.93;;
19257;SDS011;9763;48.780;9.212;2023-03-16T05:45:55;6.80;;;6.20;;
19257;SDS011;9763;48.780;9.212;2023-03-16T05:49:19;6.50;;;6.00;;
19257;SDS011;9763;48.780;9.212;2023-03-16T05:52:43;8.37;;;7.13;;
19257;SDS011;9763;48.780;9.212;2023-03-16T05:56:14;8.50;;;6.70;;
19257;SDS011;9763;48.780;9.212;2023-03-16T05:59:41;7.50;;;6.77;;
19257;SDS011;9763;48.780;9.212;2023-03-16T06:03:06;7.53;;;6.83;;
19257;SDS011;9763;48.780;9.212;2023-03-16T06:06:32;7.43;;;6.70;;
19257;SDS011;9763;48.780;9.212;2023-03-16T06:10:03;6.90;;;6.30;;
19257;SDS011;9763;48.780;9.212;2023-03-16T06:13:28;7.07;;;6.37;;
19257;SDS011;9763;48.780;9.212;2023-03-16T06:16:53;7.60;;;6.90;;
19257;SDS011;9763;48.780;9.212;2023-03-16T06:20:18;7.47;;;6.77;;
19257;SDS011;9763;48.780;9.212;2023-03-16T06:23:42;7.03;;;6.30;;
19257;SDS011;9763;48.780;9.212;2023-03-16T06:27:05;7.43;;;6.60;;
19257;SDS011;9763;48.780;9.212;2023-03-16T06:30:42;9.20;;;7.20;;
19257;SDS011;9763;48.780;9.212;2023-03-16T06:34:07;7.57;;;6.87;;
19257;SDS011;9763;48.780;9.212;2023-03-16T06:37:31;8.13;;;7.37;;
19257;SDS011;9763;48.780;9.212;2023-03-16T06:40:59;8.67;;;7.87;;
19257;SDS011;9763;48.780;9.212;2023-03-16T06:44:26;7.57;;;6.80;;
19257;SDS011;9763;48.780;9.212;2023-03-16T06:47:58;10.50;;;7.70;;
19257;SDS011;9763;48.780;9.212;2023-03-16T06:51:24;8.30;;;7.47;;
19257;SDS011;9763;48.780;9.212;2023-03-16T06:54:48;10.60;;;8.73;;
19257;SDS011;9763;48.780;9.212;2023-03-16T06:58:13;8.40;;;7.60;;
19257;SDS011;9763;48.780;9.212;2023-03-16T07:01:38;8.97;;;8.07;;
19257;SDS011;9763;48.780;9.212;2023-03-16T07:05:02;10.90;;;9.03;;
19257;SDS011;9763;48.780;9.212;2023-03-16T07:08:28;9.60;;;8.40;;
19257;SDS011;9763;48.780;9.212;2023-03-16T07:11:52;10.37;;;8.23;;
19257;SDS011;9763;48.780;9.212;2023-03-16T07:15:16;9.67;;;8.70;;
19257;SDS011;9763;48.780;9.212;2023-03-16T07:18:41;10.33;;;9.23;;
19257;SDS011;9763;48.780;9.212;2023-03-16T07:22:08;9.03;;;8.13;;
19257;SDS011;9763;48.780;9.212;2023-03-16T07:25:36;9.57;;;8.57;;
19257;SDS011;9763;48.780;9.212;2023-03-16T07:29:00;7.57;;;6.80;;
19257;SDS011;9763;48.780;9.212;2023-03-16T07:32:26;8.47;;;7.60;;
19257;SDS011;9763;48.780;9.212;2023-03-16T07:35:50;8.50;;;7.60;;
19257;SDS011;9763;48.780;9.212;2023-03-16T07:39:14;7.30;;;6.60;;
19257;SDS011;9763;48.780;9.212;2023-03-16T07:42:40;8.03;;;7.23;;
19257;SDS011;9763;48.780;9.212;2023-03-16T07:46:08;7.27;;;6.37;;
19257;SDS011;9763;48.780;9.212;2023-03-16T07:49:34;6.60;;;6.00;;
19257;SDS011;9763;48.780;9.212;2023-03-16T07:52:58;7.13;;;6.43;;
19257;SDS011;9763;48.780;9.212;2023-03-16T07:56:22;5.77;;;5.27;;
19257;SDS011;9763;48.780;9.212;2023-03-16T07:59:51;4.80;;;4.40;;
19257;SDS011;9763;48.780;9.212;2023-03-16T08:03:14;4.07;;;3.60;;
19257;SDS011;9763;48.780;9.212;2023-03-16T08:06:39;6.53;;;5.93;;
19257;SDS011;9763;48.780;9.212;2023-03-16T08:10:04;7.23;;;4.30;;
19257;SDS011;9763;48.780;9.212;2023-03-16T08:13:37;4.50;;;4.10;;
19257;SDS011;9763;48.780;9.212;2023-03-16T08:17:06;3.90;;;3.60;;
19257;SDS011;9763;48.780;9.212;2023-03-16T08:20:30;3.93;;;3.60;;
19257;SDS011;9763;48.780;9.212;2023-03-16T08:23:53;3.67;;;3.37;;
19257;SDS011;9763;48.780;9.212;2023-03-16T08:27:17;3.63;;;3.33;;
19257;SDS011;9763;48.780;9.212;2023-03-16T08:30:45;4.03;;;3.20;;
19257;SDS011;9763;48.780;9.212;2023-03-16T08:34:24;3.53;;;3.23;;
19257;SDS011;9763;48.780;9.212;2023-03-16T08:37:49;3.90;;;3.60;;
19257;SDS011;9763;48.780;9.212;2023-03-16T08:41:13;4.00;;;3.70;;
19257;SDS011;9763;48.780;9.212;2023-03-16T08:44:40;3.87;;;3.57;;
19257;SDS011;9763;48.780;9.212;2023-03-16T08:48:05;3.77;;;3.47;;
19257;SDS011;9763;48.780;9.212;2023-03-16T08:51:30;3.90;;;3.60;;
19257;SDS011;9763;48.780;9.212;2023-03-16T08:54:54;3.70;;;3.40;;
19257;SDS011;9763;48.780;9.212;2023-03-16T08:58:24;3.77;;;3.47;;
19257;SDS011;9763;48.780;9.212;2023-03-16T09:01:51;4.00;;;3.70;;
19257;SDS011;9763;48.780;9.212;2023-03-16T09:05:15;3.20;;;2.70;;
19257;SDS011;9763;48.780;9.212;2023-03-16T09:08:40;3.20;;;2.90;;
19257;SDS011;9763;48.780;9.212;2023-03-16T09:12:06;3.70;;;3.40;;
19257;SDS011;9763;48.780;9.212;2023-03-16T09:15:30;3.63;;;2.90;;
19257;SDS011;9763;48.780;9.212;2023-03-16T09:18:53;2.80;;;2.60;;
19257;SDS011;9763;48.780;9.212;2023-03-16T09:22:17;2.90;;;2.70;;
19257;SDS011;9763;48.780;9.212;2023-03-16T09:25:42;2.67;;;2.47;;
19257;SDS011;9763;48.780;9.212;2023-03-16T09:29:05;2.50;;;2.30;;
19257;SDS011;9763;48.780;9.212;2023-03-16T09:32:29;2.60;;;2.40;;
19257;SDS011;9763;48.780;9.212;2023-03-16T09:35:54;2.83;;;2.60;;
19257;SDS011;9763;48.780;9.212;2023-03-16T09:39:19;4.30;;;2.53;;
19257;SDS011;9763;48.780;9.212;2023-03-16T09:42:45;3.30;;;3.00;;
19257;SDS011;9763;48.780;9.212;2023-03-16T09:46:24;2.83;;;2.40;;
19257;SDS011;9763;48.780;9.212;2023-03-16T09:49:56;2.87;;;2.67;;
19257;SDS011;9763;48.780;9.212;2023-03-16T09:53:25;2.33;;;2.13;;
19257;SDS011;9763;48.780;9.212;2023-03-16T09:56:53;2.50;;;2.30;;
19257;SDS011;9763;48.780;9.212;2023-03-16T10:00:21;2.83;;;2.50;;
19257;SDS011;9763;48.780;9.212;2023-03-16T10:07:50;2.97;;;2.50;;
19257;SDS011;9763;48.780;9.212;2023-03-16T10:11:27;2.40;;;2.20;;
19257;SDS011;9763;48.780;9.212;2023-03-16T10:15:01;2.60;;;2.40;;
19257;SDS011;9763;48.780;9.212;2023-03-16T10:18:34;2.67;;;2.47;;
19257;SDS011;9763;48.780;9.212;2023-03-16T10:22:09;2.80;;;2.57;;
19257;SDS011;9763;48.780;9.212;2023-03-16T10:25:41;2.57;;;2.20;;
19257;SDS011;9763;48.780;9.212;2023-03-16T10:29:09;2.60;;;2.40;;
19257;SDS011;9763;48.780;9.212;2023-03-16T10:32:35;2.93;;;2.33;;
19257;SDS011;9763;48.780;9.212;2023-03-16T10:36:01;2.63;;;2.30;;
19257;SDS011;9763;48.780;9.212;2023-03-16T10:39:36;2.33;;;2.13;;
19257;SDS011;9763;48.780;9.212;2023-03-16T10:43:04;2.83;;;2.23;;
19257;SDS011;9763;48.780;9.212;2023-03-16T10:46:34;2.20;;;1.97;;
19257;SDS011;9763;48.780;9.212;2023-03-16T10:50:10;2.20;;;1.90;;
19257;SDS011;9763;48.780;9.212;2023-03-16T10:53:39;2.40;;;2.20;;
19257;SDS011;9763;48.780;9.212;2023-03-16T10:57:12;2.00;;;1.80;;
19257;SDS011;9763;48.780;9.212;2023-03-16T11:00:45;2.90;;;1.80;;
19257;SDS011;9763;48.780;9.212;2023-03-16T11:04:10;3.50;;;2.00;;
19257;SDS011;9763;48.780;9.212;2023-03-16T11:07:38;1.60;;;1.50;;
19257;SDS011;9763;48.780;9.212;2023-03-16T11:11:12;2.20;;;2.00;;
19257;SDS011;9763;48.780;9.212;2023-03-16T11:14:41;1.73;;;1.33;;
19257;SDS011;9763;48.780;9.212;2023-03-16T11:18:08;1.70;;;1.57;;
19257;SDS011;9763;48.780;9.212;2023-03-16T11:21:51;2.43;;;1.70;;
19257;SDS011;9763;48.780;9.212;2023-03-16T11:25:23;2.03;;;1.83;;
19257;SDS011;9763;48.780;9.212;2023-03-16T11:28:58;1.83;;;1.60;;
19257;SDS011;9763;48.780;9.212;2023-03-16T11:32:31;2.60;;;1.60;;
19257;SDS011;9763;48.780;9.212;2023-03-16T11:36:00;1.60;;;1.50;;
19257;SDS011;9763;48.780;9.212;2023-03-16T11:39:51;1.70;;;1.30;;
19257;SDS011;9763;48.780;9.212;2023-03-16T11:43:46;1.80;;;1.60;;
19257;SDS011;9763;48.780;9.212;2023-03-16T11:51:21;2.13;;;1.90;;
19257;SDS011;9763;48.780;9.212;2023-03-16T11:55:00;2.80;;;1.80;;
19257;SDS011;9763;48.780;9.212;2023-03-16T11:58:45;1.80;;;1.57;;
19257;SDS011;9763;48.780;9.212;2023-03-16T12:02:32;1.90;;;1.50;;
19257;SDS011;9763;48.780;9.212;2023-03-16T12:06:18;1.70;;;1.60;;
19257;SDS011;9763;48.780;9.212;2023-03-16T12:10:00;1.90;;;1.50;;
19257;SDS011;9763;48.780;9.212;2023-03-16T12:13:43;2.20;;;1.70;;
19257;SDS011;9763;48.780;9.212;2023-03-16T12:17:23;2.40;;;1.63;;
19257;SDS011;9763;48.780;9.212;2023-03-16T12:20:54;1.60;;;1.20;;
19257;SDS011;9763;48.780;9.212;2023-03-16T12:24:22;1.63;;;1.40;;
19257;SDS011;9763;48.780;9.212;2023-03-16T12:27:55;1.60;;;1.40;;
19257;SDS011;9763;48.780;9.212;2023-03-16T12:31:26;1.87;;;1.60;;
19257;SDS011;9763;48.780;9.212;2023-03-16T12:35:04;2.37;;;1.60;;
19257;SDS011;9763;48.780;9.212;2023-03-16T12:38:48;2.20;;;1.77;;
19257;SDS011;9763;48.780;9.212;2023-03-16T12:42:26;2.27;;;2.00;;
19257;SDS011;9763;48.780;9.212;2023-03-16T12:46:19;2.00;;;1.80;;
19257;SDS011;9763;48.780;9.212;2023-03-16T12:49:53;3.23;;;2.00;;
19257;SDS011;9763;48.780;9.212;2023-03-16T12:53:27;1.90;;;1.53;;
19257;SDS011;9763;48.780;9.212;2023-03-16T12:57:06;1.70;;;1.30;;
19257;SDS011;9763;48.780;9.212;2023-03-16T13:00:38;2.83;;;2.30;;
19257;SDS011;9763;48.780;9.212;2023-03-16T13:04:05;2.23;;;1.93;;
19257;SDS011;9763;48.780;9.212;2023-03-16T13:07:34;3.40;;;2.30;;
19257;SDS011;9763;48.780;9.212;2023-03-16T13:11:00;2.90;;;1.93;;
19257;SDS011;9763;48.780;9.212;2023-03-16T13:14:35;2.00;;;1.80;;
19257;SDS011;9763;48.780;9.212;2023-03-16T13:18:04;2.40;;;1.67;;
19257;SDS011;9763;48.780;9.212;2023-03-16T13:21:43;1.70;;;1.60;;
19257;SDS011;9763;48.780;9.212;2023-03-16T13:25:12;4.33;;;1.73;;
19257;SDS011;9763;48.780;9.212;2023-03-16T13:28:43;2.70;;;1.60;;
19257;SDS011;9763;48.780;9.212;2023-03-16T13:32:16;2.87;;;1.60;;
19257;SDS011;9763;48.780;9.212;2023-03-16T13:35:41;2.20;;;2.00;;
19257;SDS011;9763;48.780;9.212;2023-03-16T13:39:11;2.10;;;1.80;;
19257;SDS011;9763;48.780;9.212;2023-03-16T13:42:39;1.97;;;1.47;;
19257;SDS011;9763;48.780;9.212;2023-03-16T13:46:14;2.60;;;1.53;;
19257;SDS011;9763;48.780;9.212;2023-03-16T13:49:43;1.60;;;1.40;;
19257;SDS011;9763;48.780;9.212;2023-03-16T13:53:11;1.73;;;1.53;;
19257;SDS011;9763;48.780;9.212;2023-03-16T13:56:41;1.80;;;1.27;;
19257;SDS011;9763;48.780;9.212;2023-03-16T14:00:06;2.67;;;1.43;;
19257;SDS011;9763;48.780;9.212;2023-03-16T14:03:38;1.50;;;1.30;;
19257;SDS011;9763;48.780;9.212;2023-03-16T14:07:05;1.97;;;1.50;;
19257;SDS011;9763;48.780;9.212;2023-03-16T14:10:38;1.50;;;1.20;;
19257;SDS011;9763;48.780;9.212;2023-03-16T14:14:12;2.20;;;1.40;;
19257;SDS011;9763;48.780;9.212;2023-03-16T14:17:37;6.03;;;1.50;;
19257;SDS011;9763;48.780;9.212;2023-03-16T14:21:04;2.67;;;1.80;;
19257;SDS011;9763;48.780;9.212;2023-03-16T14:24:33;1.87;;;1.20;;
19257;SDS011;9763;48.780;9.212;2023-03-16T14:28:00;2.10;;;1.80;;
19257;SDS011;9763;48.780;9.212;2023-03-16T14:31:33;3.13;;;2.10;;
19257;SDS011;9763;48.780;9.212;2023-03-16T14:35:10;2.17;;;1.70;;
19257;SDS011;9763;48.780;9.212;2023-03-16T14:38:37;2.17;;;1.97;;
19257;SDS011;9763;48.780;9.212;2023-03-16T14:42:05;2.27;;;1.80;;
19257;SDS011;9763;48.780;9.212;2023-03-16T14:45:36;2.30;;;1.80;;
19257;SDS011;9763;48.780;9.212;2023-03-16T14:49:01;1.70;;;1.50;;
19257;SDS011;9763;48.780;9.212;2023-03-16T14:52:31;1.83;;;1.40;;
19257;SDS011;9763;48.780;9.212;2023-03-16T14:55:57;2.37;;;1.60;;
19257;SDS011;9763;48.780;9.212;2023-03-16T14:59:23;2.10;;;1.53;;
19257;SDS011;9763;48.780;9.212;2023-03-16T15:02:52;2.13;;;1.77;;
19257;SDS011;9763;48.780;9.212;2023-03-16T15:06:23;2.83;;;1.37;;
19257;SDS011;9763;48.780;9.212;2023-03-16T15:09:48;1.67;;;1.40;;
19257;SDS011;9763;48.780;9.212;2023-03-16T15:13:14;2.00;;;1.37;;
19257;SDS011;9763;48.780;9.212;2023-03-16T15:16:56;2.40;;;1.40;;
19257;SDS011;9763;48.780;9.212;2023-03-16T15:20:20;1.67;;;1.30;;
19257;SDS011;9763;48.780;9.212;2023-03-16T15:23:51;1.97;;;1.20;;
19257;SDS011;9763;48.780;9.212;2023-03-16T15:27:18;1.50;;;1.30;;
19257;SDS011;9763;48.780;9.212;2023-03-16T15:30:47;1.63;;;1.40;;
19257;SDS011;9763;48.780;9.212;2023-03-16T15:34:15;1.90;;;1.30;;
19257;SDS011;9763;48.780;9.212;2023-03-16T15:37:39;3.60;;;1.40;;
19257;SDS011;9763;48.780;9.212;2023-03-16T15:41:02;2.20;;;1.50;;
19257;SDS011;9763;48.780;9.212;2023-03-16T15:44:31;1.47;;;1.23;;
19257;SDS011;9763;48.780;9.212;2023-03-16T15:47:54;1.30;;;1.00;;
19257;SDS011;9763;48.780;9.212;2023-03-16T15:51:20;1.30;;;1.03;;
19257;SDS011;9763;48.780;9.212;2023-03-16T15:54:49;1.70;;;1.20;;
19257;SDS011;9763;48.780;9.212;2023-03-16T15:58:14;1.40;;;1.10;;
19257;SDS011;9763;48.780;9.212;2023-03-16T16:01:42;1.53;;;1.07;;
19257;SDS011;9763;48.780;9.212;2023-03-16T16:05:09;1.53;;;1.10;;
19257;SDS011;9763;48.780;9.212;2023-03-16T16:08:34;1.40;;;1.13;;
19257;SDS011;9763;48.780;9.212;2023-03-16T16:11:58;1.50;;;1.20;;
19257;SDS011;9763;48.780;9.212;2023-03-16T16:15:23;1.73;;;1.27;;
19257;SDS011;9763;48.780;9.212;2023-03-16T16:18:50;2.50;;;1.60;;
19257;SDS011;9763;48.780;9.212;2023-03-16T16:22:13;2.73;;;1.23;;
19257;SDS011;9763;48.780;9.212;2023-03-16T16:25:39;1.53;;;1.30;;
19257;SDS011;9763;48.780;9.212;2023-03-16T16:29:04;2.53;;;1.40;;
19257;SDS011;9763;48.780;9.212;2023-03-16T16:32:34;1.50;;;1.33;;
19257;SDS011;9763;48.780;9.212;2023-03-16T16:35:58;1.43;;;1.10;;
19257;SDS011;9763;48.780;9.212;2023-03-16T16:39:24;1.80;;;1.20;;
19257;SDS011;9763;48.780;9.212;2023-03-16T16:42:50;1.30;;;1.00;;
19257;SDS011;9763;48.780;9.212;2023-03-16T16:46:16;2.33;;;1.00;;
19257;SDS011;9763;48.780;9.212;2023-03-16T16:49:41;1.57;;;1.10;;
19257;SDS011;9763;48.780;9.212;2023-03-16T16:53:08;3.10;;;2.80;;
19257;SDS011;9763;48.780;9.212;2023-03-16T16:56:41;1.80;;;1.60;;
19257;SDS011;9763;48.780;9.212;2023-03-16T17:00:13;2.00;;;1.80;;
19257;SDS011;9763;48.780;9.212;2023-03-16T17:03:43;2.10;;;1.43;;
19257;SDS011;9763;48.780;9.212;2023-03-16T17:07:08;1.77;;;1.53;;
19257;SDS011;9763;48.780;9.212;2023-03-16T17:10:34;2.30;;;1.77;;
19257;SDS011;9763;48.780;9.212;2023-03-16T17:13:59;1.90;;;1.43;;
19257;SDS011;9763;48.780;9.212;2023-03-16T17:17:28;2.50;;;1.30;;
19257;SDS011;9763;48.780;9.212;2023-03-16T17:20:52;1.60;;;1.13;;
19257;SDS011;9763;48.780;9.212;2023-03-16T17:24:17;1.90;;;1.50;;
19257;SDS011;9763;48.780;9.212;2023-03-16T17:27:41;1.53;;;1.43;;
19257;SDS011;9763;48.780;9.212;2023-03-16T17:31:09;1.70;;;1.60;;
19257;SDS011;9763;48.780;9.212;2023-03-16T17:34:35;1.70;;;1.50;;
19257;SDS011;9763;48.780;9.212;2023-03-16T17:37:59;2.10;;;1.17;;
19257;SDS011;9763;48.780;9.212;2023-03-16T17:41:23;2.63;;;1.50;;
19257;SDS011;9763;48.780;9.212;2023-03-16T17:44:52;2.17;;;1.70;;
19257;SDS011;9763;48.780;9.212;2023-03-16T17:48:17;2.23;;;1.73;;
19257;SDS011;9763;48.780;9.212;2023-03-16T17:51:46;2.47;;;2.27;;
19257;SDS011;9763;48.780;9.212;2023-03-16T17:55:10;2.00;;;1.80;;
19257;SDS011;9763;48.780;9.212;2023-03-16T17:58:34;2.67;;;1.60;;
19257;SDS011;9763;48.780;9.212;2023-03-16T18:01:58;3.20;;;1.40;;
19257;SDS011;9763;48.780;9.212;2023-03-16T18:05:23;1.60;;;1.40;;
19257;SDS011;9763;48.780;9.212;2023-03-16T18:08:50;1.60;;;1.40;;
19257;SDS011;9763;48.780;9.212;2023-03-16T18:12:14;1.60;;;1.10;;
19257;SDS011;9763;48.780;9.212;2023-03-16T18:15:38;2.00;;;1.30;;
19257;SDS011;9763;48.780;9.212;2023-03-16T18:19:02;3.50;;;1.10;;
19257;SDS011;9763;48.780;9.212;2023-03-16T18:22:42;1.40;;;1.17;;
19257;SDS011;9763;48.780;9.212;2023-03-16T18:26:07;1.80;;;1.40;;
19257;SDS011;9763;48.780;9.212;2023-03-16T18:29:32;1.57;;;1.40;;
19257;SDS011;9763;48.780;9.212;2023-03-16T18:32:55;1.70;;;1.20;;
19257;SDS011;9763;48.780;9.212;2023-03-16T18:36:21;2.10;;;1.47;;
19257;SDS011;9763;48.780;9.212;2023-03-16T18:39:50;1.53;;;1.33;;
19257;SDS011;9763;48.780;9.212;2023-03-16T18:43:17;1.83;;;1.43;;
19257;SDS011;9763;48.780;9.212;2023-03-16T18:46:40;1.40;;;1.20;;
19257;SDS011;9763;48.780;9.212;2023-03-16T18:50:05;1.60;;;1.30;;
19257;SDS011;9763;48.780;9.212;2023-03-16T18:53:37;1.83;;;1.40;;
19257;SDS011;9763;48.780;9.212;2023-03-16T18:57:01;1.50;;;1.20;;
19257;SDS011;9763;48.780;9.212;2023-03-16T19:00:27;1.80;;;1.53;;
19257;SDS011;9763;48.780;9.212;2023-03-16T19:03:53;1.80;;;1.47;;
19257;SDS011;9763;48.780;9.212;2023-03-16T19:07:21;1.50;;;1.40;;
19257;SDS011;9763;48.780;9.212;2023-03-16T19:10:51;1.60;;;1.40;;
19257;SDS011;9763;48.780;9.212;2023-03-16T19:14:17;1.60;;;1.30;;
19257;SDS011;9763;48.780;9.212;2023-03-16T19:17:45;1.90;;;1.57;;
19257;SDS011;9763;48.780;9.212;2023-03-16T19:21:14;1.50;;;1.17;;
19257;SDS011;9763;48.780;9.212;2023-03-16T19:24:43;1.60;;;1.30;;
19257;SDS011;9763;48.780;9.212;2023-03-16T19:28:11;1.63;;;1.20;;
19257;SDS011;9763;48.780;9.212;2023-03-16T19:31:37;2.10;;;1.10;;
19257;SDS011;9763;48.780;9.212;2023-03-16T19:35:04;1.57;;;1.13;;
19257;SDS011;9763;48.780;9.212;2023-03-16T19:38:36;1.50;;;1.20;;
19257;SDS011;9763;48.780;9.212;2023-03-16T19:42:00;1.30;;;1.10;;
19257;SDS011;9763;48.780;9.212;2023-03-16T19:45:24;1.70;;;1.30;;
19257;SDS011;9763;48.780;9.212;2023-03-16T19:48:54;1.70;;;1.40;;
19257;SDS011;9763;48.780;9.212;2023-03-16T19:52:19;1.63;;;1.20;;
19257;SDS011;9763;48.780;9.212;2023-03-16T19:55:43;2.30;;;1.63;;
19257;SDS011;9763;48.780;9.212;2023-03-16T19:59:09;2.27;;;1.57;;
19257;SDS011;9763;48.780;9.212;2023-03-16T20:02:34;1.80;;;1.57;;
19257;SDS011;9763;48.780;9.212;2023-03-16T20:06:00;2.10;;;1.60;;
19257;SDS011;9763;48.780;9.212;2023-03-16T20:09:26;3.07;;;1.40;;
19257;SDS011;9763;48.780;9.212;2023-03-16T20:12:50;2.10;;;1.43;;
19257;SDS011;9763;48.780;9.212;2023-03-16T20:16:18;1.40;;;1.20;;
19257;SDS011;9763;48.780;9.212;2023-03-16T20:19:46;1.90;;;1.47;;
19257;SDS011;9763;48.780;9.212;2023-03-16T20:23:14;1.50;;;1.23;;
19257;SDS011;9763;48.780;9.212;2023-03-16T20:26:42;1.50;;;1.27;;
19257;SDS011;9763;48.780;9.212;2023-03-16T20:30:14;2.20;;;1.67;;
19257;SDS011;9763;48.780;9.212;2023-03-16T20:33:39;1.90;;;1.40;;
19257;SDS011;9763;48.780;9.212;2023-03-16T20:37:04;1.80;;;1.47;;
19257;SDS011;9763;48.780;9.212;2023-03-16T20:40:45;2.00;;;1.80;;
19257;SDS011;9763;48.780;9.212;2023-03-16T20:44:12;1.60;;;1.40;;
19257;SDS011;9763;48.780;9.212;2023-03-16T20:47:39;2.10;;;1.50;;
19257;SDS011;9763;48.780;9.212;2023-03-16T20:51:03;1.80;;;1.50;;
19257;SDS011;9763;48.780;9.212;2023-03-16T20:54:28;2.40;;;2.10;;
19257;SDS011;9763;48.780;9.212;2023-03-16T20:57:52;2.37;;;1.90;;
19257;SDS011;9763;48.780;9.212;2023-03-16T21:01:19;2.90;;;1.87;;
19257;SDS011;9763;48.780;9.212;2023-03-16T21:04:45;1.97;;;1.77;;
19257;SDS011;9763;48.780;9.212;2023-03-16T21:08:09;2.20;;;2.00;;
19257;SDS011;9763;48.780;9.212;2023-03-16T21:11:34;3.43;;;2.40;;
19257;SDS011;9763;48.780;9.212;2023-03-16T21:14:59;2.23;;;1.77;;
19257;SDS011;9763;48.780;9.212;2023-03-16T21:18:25;3.93;;;1.90;;